Time;durP1;ratioP1;P1;durP2;ratioP2;P2;SDS_P1;SDS_P2;PMS_P1;PMS_P2;Temp;Humidity;BMP_temperature;BMP_pressure;BME280_temperature;BME280_humidity;BME280_pressure;Samples;Min_cycle;Max_cycle;Signal;HPM_P1;HPM_P2
2021/07/01 00:01:11;;;;;;;7.25;4.60;;;;;;;21.11;56.98;101536.19;5016902;28;20033;-71
2021/07/01 00:03:39;;;;;;;7.20;5.10;;;;;;;21.09;57.15;101533.56;5016779;28;20083;-73
2021/07/01 00:06:04;;;;;;;7.15;4.68;;;;;;;21.08;57.47;101533.56;4999278;28;20029;-72
2021/07/01 00:08:30;;;;;;;8.07;4.45;;;;;;;21.08;57.16;101526.56;4998960;28;20036;-71
2021/07/01 00:10:55;;;;;;;6.65;4.78;;;;;;;21.11;57.08;101538.81;4999055;28;20052;-71
2021/07/01 00:13:21;;;;;;;7.63;5.35;;;;;;;21.10;57.25;101537.09;4999243;28;20029;-72
2021/07/01 00:15:46;;;;;;;7.25;4.05;;;;;;;21.07;57.23;101532.69;5016343;28;20367;-71
2021/07/01 00:18:12;;;;;;;5.43;3.78;;;;;;;21.10;57.26;101537.09;4998778;28;20056;-71
2021/07/01 00:20:37;;;;;;;5.32;4.25;;;;;;;21.10;57.15;101537.09;4998783;28;20025;-72
2021/07/01 00:23:03;;;;;;;5.75;4.00;;;;;;;21.10;57.00;101532.69;5016388;28;20057;-71
2021/07/01 00:25:29;;;;;;;5.85;4.05;;;;;;;21.06;57.12;101530.94;4998571;28;20476;-72
2021/07/01 00:27:54;;;;;;;5.00;3.80;;;;;;;21.09;57.12;101524.81;4998473;28;20037;-71
2021/07/01 00:30:21;;;;;;;4.82;4.15;;;;;;;21.10;57.11;101537.09;4998373;28;20026;-72
2021/07/01 00:32:48;;;;;;;4.35;3.95;;;;;;;21.09;56.95;101535.34;5016122;28;20034;-71
2021/07/01 00:35:14;;;;;;;6.03;4.40;;;;;;;21.10;57.22;101537.09;5016278;28;20026;-71
2021/07/01 00:37:40;;;;;;;6.47;4.15;;;;;;;21.07;57.06;101524.81;4998013;28;20369;-71
2021/07/01 00:40:08;;;;;;;4.45;4.05;;;;;;;21.09;57.19;101530.06;4998550;28;20034;-72
2021/07/01 00:42:35;;;;;;;6.80;4.43;;;;;;;21.09;57.26;101530.06;5016040;28;20032;-71
2021/07/01 00:45:01;;;;;;;5.47;4.07;;;;;;;21.08;57.36;101529.19;5015842;28;20030;-71
2021/07/01 00:47:26;;;;;;;4.90;4.40;;;;;;;21.05;56.84;101524.81;5015789;28;20045;-72
2021/07/01 00:49:53;;;;;;;5.00;4.10;;;;;;;21.08;57.09;101531.81;4998200;28;20492;-71
2021/07/01 00:52:19;;;;;;;5.38;4.63;;;;;;;21.06;57.30;101515.16;4998346;28;20049;-72
2021/07/01 00:54:45;;;;;;;5.38;4.00;;;;;;;21.04;57.17;101520.44;4981872;28;20133;-71
2021/07/01 00:57:11;;;;;;;4.38;3.75;;;;;;;21.08;57.15;101521.31;5015670;28;20498;-72
2021/07/01 00:59:37;;;;;;;6.85;4.55;;;;;;;21.08;57.15;101518.69;5015604;28;20109;-71
2021/07/01 01:02:06;;;;;;;5.00;3.78;;;;;;;21.05;57.11;101516.06;5015527;28;20479;-72
2021/07/01 01:04:33;;;;;;;5.72;4.43;;;;;;;21.08;57.07;101525.69;4998032;28;20034;-72
2021/07/01 01:06:58;;;;;;;5.18;3.90;;;;;;;21.07;57.33;101514.28;4981566;28;20133;-71
2021/07/01 01:09:23;;;;;;;6.50;3.70;;;;;;;21.07;57.13;101518.69;5015389;28;20474;-71
2021/07/01 01:11:49;;;;;;;5.05;4.15;;;;;;;21.08;57.15;101520.44;4981579;28;20030;-71
2021/07/01 01:14:14;;;;;;;3.95;3.40;;;;;;;21.08;57.07;101528.31;5015730;28;20030;-71
2021/07/01 01:16:40;;;;;;;4.60;3.88;;;;;;;21.07;57.13;101521.31;5015110;28;20026;-72
2021/07/01 01:19:06;;;;;;;6.13;4.57;;;;;;;21.08;57.19;101521.31;5015295;28;20050;-71
2021/07/01 01:21:31;;;;;;;5.32;3.92;;;;;;;21.05;57.02;101510.78;4997616;28;20464;-72
2021/07/01 01:23:58;;;;;;;5.82;4.03;;;;;;;21.08;57.41;101517.78;5015119;28;20035;-72
2021/07/01 01:26:24;;;;;;;4.97;4.38;;;;;;;21.07;57.09;101511.66;5015162;28;20033;-72
2021/07/01 01:28:50;;;;;;;4.93;3.50;;;;;;;21.08;57.13;101512.53;4981202;28;20423;-71
2021/07/01 01:31:16;;;;;;;7.63;4.40;;;;;;;21.07;57.30;101503.78;4981094;28;20033;-72
2021/07/01 01:33:41;;;;;;;4.53;4.03;;;;;;;21.07;57.24;101505.53;5014973;28;20034;-72
2021/07/01 01:36:07;;;;;;;5.97;3.92;;;;;;;21.04;57.21;101503.78;4997343;28;20021;-72
2021/07/01 01:38:32;;;;;;;5.28;3.70;;;;;;;21.04;57.38;101502.03;4981217;28;20024;-72
2021/07/01 01:40:57;;;;;;;5.65;3.92;;;;;;;21.06;57.23;101507.28;4998054;28;19921;-71
2021/07/01 01:43:23;;;;;;;5.32;3.90;;;;;;;21.07;57.16;101505.53;4997872;28;20053;-71
2021/07/01 01:45:50;;;;;;;5.20;3.85;;;;;;;21.07;57.24;101503.78;4997288;28;20113;-72
2021/07/01 01:48:16;;;;;;;5.25;3.38;;;;;;;21.07;57.08;101505.53;4996379;28;20049;-73
2021/07/01 01:50:42;;;;;;;5.40;3.60;;;;;;;21.07;57.38;101505.53;5015322;28;20037;-72
2021/07/01 01:53:09;;;;;;;4.55;3.50;;;;;;;21.05;57.18;101501.16;4997768;28;20034;-73
2021/07/01 01:55:35;;;;;;;4.47;3.58;;;;;;;21.07;57.10;101511.66;4997392;28;20173;-73
2021/07/01 01:58:01;;;;;;;4.57;3.92;;;;;;;21.05;57.10;101505.53;5014750;28;20025;-73
2021/07/01 02:00:27;;;;;;;5.57;4.28;;;;;;;21.06;57.34;101509.91;4997388;28;20025;-73
2021/07/01 02:02:53;;;;;;;4.18;3.78;;;;;;;21.07;57.23;101501.16;4981015;28;20037;-73
2021/07/01 02:05:19;;;;;;;4.30;3.58;;;;;;;20.99;57.61;101500.31;4980886;28;20379;-73
2021/07/01 02:07:44;;;;;;;5.25;3.92;;;;;;;21.05;57.14;101516.94;5014330;28;20030;-73
2021/07/01 02:10:13;;;;;;;5.30;4.18;;;;;;;21.07;57.28;101521.31;5014157;28;20026;-73
2021/07/01 02:12:39;;;;;;;4.60;3.58;;;;;;;21.05;57.25;101516.94;5014226;28;20387;-73
2021/07/01 02:15:07;;;;;;;3.85;3.28;;;;;;;21.07;57.33;101521.31;4996959;28;20037;-73
2021/07/01 02:17:34;;;;;;;4.75;3.72;;;;;;;21.03;57.19;101505.53;5014327;28;20041;-73
2021/07/01 02:20:01;;;;;;;5.80;4.70;;;;;;;21.06;57.36;101517.81;5014244;28;20101;-73
2021/07/01 02:22:26;;;;;;;4.13;3.55;;;;;;;21.05;57.07;101516.94;4996519;28;20084;-73
2021/07/01 02:24:51;;;;;;;5.32;4.15;;;;;;;21.04;57.21;101515.19;4996425;28;20029;-73
2021/07/01 02:27:17;;;;;;;3.88;3.53;;;;;;;21.05;57.18;101519.56;4980087;28;20072;-73
2021/07/01 02:29:42;;;;;;;4.68;3.47;;;;;;;21.04;57.16;101517.81;5014038;28;20041;-73
2021/07/01 02:32:08;;;;;;;6.05;4.43;;;;;;;21.02;57.37;101510.84;5013981;28;20113;-74
2021/07/01 02:34:39;;;;;;;5.20;3.55;;;;;;;21.02;57.31;101522.22;4996485;28;20030;-73
2021/07/01 02:37:05;;;;;;;4.65;3.85;;;;;;;21.05;57.05;101513.41;4981013;28;20032;-73
2021/07/01 02:39:31;;;;;;;3.97;3.05;;;;;;;21.04;57.18;101514.31;5013993;28;20030;-73
2021/07/01 02:41:56;;;;;;;4.00;3.38;;;;;;;21.00;57.34;101508.22;4996478;28;20045;-73
2021/07/01 02:44:21;;;;;;;3.72;3.08;;;;;;;21.04;57.12;101503.78;5014039;28;20349;-73
2021/07/01 02:46:47;;;;;;;4.00;3.50;;;;;;;21.03;57.24;101502.06;4996305;28;20069;-73
2021/07/01 02:49:12;;;;;;;5.85;4.05;;;;;;;21.03;57.19;101507.31;5013361;28;20502;-73
2021/07/01 02:51:37;;;;;;;5.57;4.60;;;;;;;21.04;57.16;101504.66;5014995;28;20026;-73
2021/07/01 02:54:03;;;;;;;6.33;4.00;;;;;;;21.04;57.39;101504.66;5016816;28;20542;-71
2021/07/01 02:56:39;;;;;;;4.20;3.55;;;;;;;21.05;57.13;101502.91;4980256;28;20030;-71
2021/07/01 02:59:05;;;;;;;4.15;3.60;;;;;;;21.04;57.17;101503.78;5013854;28;20097;-71
2021/07/01 03:01:30;;;;;;;5.07;3.58;;;;;;;21.02;57.13;101500.31;5014022;28;20077;-71
2021/07/01 03:03:56;;;;;;;4.32;3.50;;;;;;;20.99;57.35;101490.69;4996059;28;20021;-71
2021/07/01 03:06:21;;;;;;;5.30;3.65;;;;;;;21.03;57.22;101494.19;4980195;28;20029;-71
2021/07/01 03:08:46;;;;;;;3.67;3.08;;;;;;;21.03;57.15;101492.38;5013759;28;20468;-71
2021/07/01 03:11:12;;;;;;;3.97;3.53;;;;;;;21.04;57.35;101498.53;5013846;28;20492;-71
2021/07/01 03:13:37;;;;;;;4.63;3.95;;;;;;;21.03;57.23;101502.91;4996098;28;20476;-71
2021/07/01 03:16:02;;;;;;;3.83;3.30;;;;;;;21.00;57.22;101497.69;4996196;28;20476;-71
2021/07/01 03:18:28;;;;;;;3.65;3.20;;;;;;;21.03;57.13;101496.81;5013464;28;20033;-71
2021/07/01 03:20:53;;;;;;;4.47;3.88;;;;;;;21.00;57.02;101495.06;4995787;28;20384;-71
2021/07/01 03:23:18;;;;;;;4.65;3.28;;;;;;;21.02;57.14;101490.66;4995881;28;20391;-71
2021/07/01 03:25:44;;;;;;;4.88;3.60;;;;;;;21.01;57.17;101490.69;4995921;28;20128;-71
2021/07/01 03:28:09;;;;;;;5.20;3.28;;;;;;;21.03;57.13;101500.28;4963479;28;20037;-71
2021/07/01 03:30:35;;;;;;;6.95;4.22;;;;;;;21.02;57.17;101498.56;5013664;28;20029;-71
2021/07/01 03:33:00;;;;;;;4.90;3.35;;;;;;;21.03;57.22;101495.03;5013394;28;20034;-71
2021/07/01 03:35:25;;;;;;;5.43;3.97;;;;;;;21.00;57.24;101492.44;4979658;28;20053;-71
2021/07/01 03:37:51;;;;;;;5.50;3.97;;;;;;;21.02;57.05;101500.31;4979647;28;20348;-71
2021/07/01 03:40:16;;;;;;;3.72;3.20;;;;;;;21.02;57.25;101497.69;4995842;28;20064;-71
2021/07/01 03:42:41;;;;;;;4.28;3.38;;;;;;;20.98;57.20;101493.31;5013287;28;20038;-71
2021/07/01 03:45:07;;;;;;;4.18;3.75;;;;;;;21.03;57.27;101496.81;4995813;28;20025;-71
2021/07/01 03:47:33;;;;;;;5.60;3.95;;;;;;;21.02;57.27;101495.94;5013002;28;20038;-71
2021/07/01 03:49:58;;;;;;;4.68;3.30;;;;;;;21.02;57.20;101492.44;4995520;28;20062;-71
2021/07/01 03:52:24;;;;;;;4.05;3.50;;;;;;;21.01;57.10;101496.81;5013360;28;20112;-71
2021/07/01 03:54:49;;;;;;;5.07;3.95;;;;;;;21.02;57.21;101502.94;4979260;28;20029;-71
2021/07/01 03:57:14;;;;;;;4.65;3.40;;;;;;;21.01;57.14;101504.69;5013077;28;20034;-72
2021/07/01 03:59:40;;;;;;;4.95;3.42;;;;;;;21.02;57.30;101500.31;4979328;28;20034;-72
2021/07/01 04:02:05;;;;;;;5.32;4.07;;;;;;;21.02;57.17;101500.31;4995556;28;20029;-71
2021/07/01 04:04:31;;;;;;;4.25;3.85;;;;;;;21.03;57.17;101502.06;5012926;28;20056;-71
2021/07/01 04:06:56;;;;;;;5.35;3.33;;;;;;;21.01;57.40;101501.19;5013189;28;20108;-71
2021/07/01 04:09:22;;;;;;;5.97;4.20;;;;;;;20.98;57.20;101495.94;5013147;28;20034;-71
2021/07/01 04:11:47;;;;;;;7.00;4.05;;;;;;;21.01;57.14;101494.19;4997189;28;20100;-71
2021/07/01 04:14:16;;;;;;;5.63;3.92;;;;;;;21.03;57.17;101502.06;4982634;28;20535;-71
2021/07/01 04:16:41;;;;;;;3.70;3.28;;;;;;;21.02;57.06;101497.69;4967480;28;20036;-72
2021/07/01 04:19:07;;;;;;;3.95;3.45;;;;;;;21.02;57.07;101502.94;4998755;28;20034;-71
2021/07/01 04:21:32;;;;;;;3.88;3.20;;;;;;;21.02;57.08;101503.81;4998949;28;20034;-71
2021/07/01 04:23:58;;;;;;;5.20;3.90;;;;;;;21.01;57.24;101503.81;4998724;28;20034;-71
2021/07/01 04:26:24;;;;;;;4.68;3.65;;;;;;;21.02;57.26;101505.56;4998633;28;20018;-71
2021/07/01 04:28:50;;;;;;;5.25;3.92;;;;;;;21.02;57.16;101508.19;5016125;28;20026;-71
2021/07/01 04:31:17;;;;;;;4.32;3.22;;;;;;;21.01;57.08;101504.69;4998824;28;20113;-71
2021/07/01 04:33:42;;;;;;;4.68;3.30;;;;;;;21.03;57.12;101510.78;4998876;28;20026;-71
2021/07/01 04:36:08;;;;;;;5.28;3.80;;;;;;;21.03;57.38;101504.69;4982362;28;20555;-71
2021/07/01 04:38:33;;;;;;;4.65;3.88;;;;;;;21.04;57.11;101506.41;4998480;28;20079;-71
2021/07/01 04:40:59;;;;;;;5.55;4.13;;;;;;;21.03;57.27;101502.06;4998614;28;20083;-71
2021/07/01 04:43:24;;;;;;;4.57;3.17;;;;;;;21.05;57.02;101508.16;5016173;28;20021;-71
2021/07/01 04:45:50;;;;;;;5.63;3.88;;;;;;;21.07;57.04;101505.53;4998313;28;20044;-71
2021/07/01 04:48:15;;;;;;;4.07;3.35;;;;;;;21.03;57.24;101510.78;5015458;28;20033;-71
2021/07/01 04:50:40;;;;;;;5.90;3.45;;;;;;;21.05;57.30;101509.03;4981762;28;20123;-71
2021/07/01 04:53:06;;;;;;;5.32;3.85;;;;;;;21.03;57.36;101491.53;4966172;28;20034;-71
2021/07/01 04:55:31;;;;;;;4.00;3.60;;;;;;;21.05;57.50;101501.16;4998768;28;20411;-71
2021/07/01 04:57:57;;;;;;;3.75;3.35;;;;;;;21.04;57.28;101494.13;5016058;28;20030;-71
2021/07/01 05:00:22;;;;;;;4.47;3.10;;;;;;;21.07;57.46;101495.00;5015833;28;20040;-74
2021/07/01 05:02:47;;;;;;;5.57;3.75;;;;;;;21.08;57.34;101496.75;5016544;28;19914;-72
2021/07/01 05:05:13;;;;;;;5.78;3.30;;;;;;;21.05;57.39;101489.75;4998519;28;20044;-71
2021/07/01 05:07:45;;;;;;;4.30;3.10;;;;;;;21.07;57.17;101502.91;4981969;28;20494;-72
2021/07/01 05:10:12;;;;;;;6.22;3.83;;;;;;;21.07;57.11;101506.41;4998394;28;20116;-72
2021/07/01 05:12:38;;;;;;;6.88;3.45;;;;;;;21.06;57.09;101512.53;4998374;28;20120;-72
2021/07/01 05:15:04;;;;;;;6.60;4.43;;;;;;;21.05;57.22;101511.66;5017263;28;20080;-72
2021/07/01 05:17:30;;;;;;;6.53;4.00;;;;;;;21.02;57.40;101511.72;5017327;28;20037;-71
2021/07/01 05:19:55;;;;;;;5.78;4.45;;;;;;;21.01;57.21;101509.09;4999129;28;20037;-72
2021/07/01 05:22:21;;;;;;;8.30;4.93;;;;;;;21.02;56.97;101522.22;4998166;28;20387;-71
2021/07/01 05:24:46;;;;;;;7.10;4.50;;;;;;;21.00;57.07;101508.22;5016849;28;20368;-72
2021/07/01 05:27:11;;;;;;;5.90;4.45;;;;;;;21.02;57.45;101513.47;4966374;28;20034;-71
2021/07/01 05:29:37;;;;;;;10.75;4.55;;;;;;;21.05;57.04;101516.06;5015596;28;20125;-72
2021/07/01 05:32:02;;;;;;;7.55;5.03;;;;;;;21.03;56.93;101508.16;5015509;28;20115;-72
2021/07/01 05:34:28;;;;;;;11.10;6.38;;;;;;;21.02;56.90;101511.72;4998048;28;20030;-71
2021/07/01 05:36:53;;;;;;;13.45;5.28;;;;;;;21.05;56.62;101508.16;4981318;28;20100;-72
2021/07/01 05:39:18;;;;;;;9.13;5.47;;;;;;;21.02;56.94;101503.81;4997695;28;20117;-70
2021/07/01 05:41:44;;;;;;;18.73;9.35;;;;;;;20.13;57.15;101510.16;5014813;28;20463;-72
2021/07/01 05:44:09;;;;;;;19.95;9.18;;;;;;;19.75;57.69;101511.94;4997433;28;20124;-70
2021/07/01 05:46:34;;;;;;;14.95;8.38;;;;;;;19.74;58.26;101510.19;5014841;28;20036;-72
2021/07/01 05:49:00;;;;;;;23.20;10.70;;;;;;;19.73;57.71;101511.09;4980944;28;20488;-72
2021/07/01 05:51:28;;;;;;;25.35;10.70;;;;;;;19.56;58.32;101511.06;4997304;28;20396;-72
2021/07/01 05:54:18;;;;;;;21.27;10.93;;;;;;;19.62;57.71;101511.91;4997414;28;20021;-71
2021/07/01 05:56:43;;;;;;;21.67;10.10;;;;;;;19.41;58.09;101524.09;5000817;28;20034;-71
2021/07/01 05:59:10;;;;;;;24.77;11.13;;;;;;;19.39;58.38;101518.84;5014560;28;20026;-71
2021/07/01 06:01:37;;;;;;;23.35;11.32;;;;;;;19.38;58.29;101514.47;4997316;28;20058;-71
2021/07/01 06:04:09;;;;;;;33.63;11.90;;;;;;;19.22;58.52;101523.19;5014642;28;20108;-71
2021/07/01 06:06:36;;;;;;;27.65;11.07;;;;;;;19.19;58.90;101523.19;4996838;28;20025;-71
2021/07/01 06:09:03;;;;;;;34.40;12.13;;;;;;;19.12;58.62;101524.03;4980452;28;20117;-71
2021/07/01 06:11:30;;;;;;;25.73;11.20;;;;;;;19.11;59.17;101533.63;4996854;28;20026;-71
2021/07/01 06:13:55;;;;;;;24.73;11.52;;;;;;;19.27;58.27;101526.69;5014790;28;20030;-71
2021/07/01 06:16:24;;;;;;;21.83;9.98;;;;;;;19.59;57.80;101525.06;4998930;28;20049;-71
2021/07/01 06:18:50;;;;;;;29.55;10.68;;;;;;;19.53;57.75;101529.41;5015746;28;20104;-71
2021/07/01 06:21:17;;;;;;;25.98;12.30;;;;;;;19.47;57.98;101534.63;4996826;28;20025;-71
2021/07/01 06:23:42;;;;;;;31.40;11.15;;;;;;;19.38;58.17;101527.59;5016489;28;20503;-71
2021/07/01 06:26:09;;;;;;;30.35;11.88;;;;;;;19.35;58.41;101530.19;4998430;28;20045;-71
2021/07/01 06:28:40;;;;;;;23.98;10.75;;;;;;;19.24;58.57;101529.31;4997301;28;20022;-71
2021/07/01 06:31:07;;;;;;;22.65;11.10;;;;;;;19.57;57.87;101526.81;5015717;28;20030;-72
2021/07/01 06:33:32;;;;;;;22.30;11.63;;;;;;;19.67;57.72;101532.94;5014532;28;20028;-72
2021/07/01 06:35:59;;;;;;;35.05;11.52;;;;;;;19.57;57.90;101526.81;5014361;28;20033;-71
2021/07/01 06:38:27;;;;;;;28.90;11.27;;;;;;;19.52;57.75;101525.91;4980939;28;20025;-71
2021/07/01 06:40:53;;;;;;;20.67;10.30;;;;;;;19.44;58.35;101525.00;4996954;28;20025;-72
2021/07/01 06:43:21;;;;;;;20.27;9.75;;;;;;;19.63;57.45;101529.41;4997628;28;20057;-71
2021/07/01 06:45:49;;;;;;;18.13;9.45;;;;;;;19.75;57.36;101514.56;4997458;28;20037;-71
2021/07/01 06:48:15;;;;;;;24.42;11.27;;;;;;;19.82;57.39;101524.19;5016173;28;20180;-73
2021/07/01 06:50:41;;;;;;;22.83;10.40;;;;;;;19.90;57.42;101533.81;5016923;28;20503;-71
2021/07/01 06:53:06;;;;;;;21.63;10.65;;;;;;;20.10;56.92;101522.44;5015137;28;20496;-71
2021/07/01 06:55:32;;;;;;;19.23;11.60;;;;;;;20.27;56.72;101528.53;4997114;28;20119;-72
2021/07/01 06:57:58;;;;;;;24.65;12.23;;;;;;;20.37;56.44;101530.31;4980830;28;20033;-72
2021/07/01 07:00:24;;;;;;;16.27;9.35;;;;;;;20.45;56.02;101527.66;4981260;28;20116;-72
2021/07/01 07:02:51;;;;;;;21.88;11.38;;;;;;;20.52;56.08;101532.00;5014738;28;20052;-72
2021/07/01 07:05:18;;;;;;;24.00;11.20;;;;;;;20.55;55.93;101538.16;5014505;28;20033;-72
2021/07/01 07:07:46;;;;;;;19.73;10.10;;;;;;;20.56;56.06;101534.66;4997850;28;20042;-72
2021/07/01 07:10:14;;;;;;;18.55;12.85;;;;;;;20.61;56.23;101534.66;4997353;28;20021;-72
2021/07/01 07:12:44;;;;;;;20.33;11.48;;;;;;;20.63;56.22;101540.78;5014714;28;20033;-72
2021/07/01 07:15:22;;;;;;;19.48;10.90;;;;;;;20.62;55.76;101534.66;5014636;28;20099;-72
2021/07/01 07:17:50;;;;;;;15.77;9.80;;;;;;;20.64;56.23;101543.38;5014642;28;20018;-72
2021/07/01 07:20:20;;;;;;;16.17;10.38;;;;;;;20.67;56.33;101538.13;5014254;28;20041;-71
2021/07/01 07:22:47;;;;;;;20.17;11.90;;;;;;;20.69;56.24;101538.13;4999390;28;20029;-74
2021/07/01 07:25:13;;;;;;;18.88;10.57;;;;;;;20.71;56.04;101546.88;5000260;28;20044;-74
2021/07/01 07:27:45;;;;;;;21.65;10.38;;;;;;;20.73;56.13;101549.50;5000340;28;20030;-74
2021/07/01 07:30:10;;;;;;;14.18;9.18;;;;;;;20.72;56.24;101539.88;5015535;28;20057;-72
2021/07/01 07:32:39;;;;;;;23.08;9.55;;;;;;;20.76;56.41;101552.13;4996277;28;20030;-72
2021/07/01 07:35:05;;;;;;;14.30;9.90;;;;;;;20.76;56.26;101553.00;4996012;28;20128;-71
2021/07/01 07:37:31;;;;;;;18.80;10.13;;;;;;;20.78;56.12;101548.59;5014147;28;20076;-71
2021/07/01 07:40:01;;;;;;;16.52;10.02;;;;;;;20.78;56.13;101556.47;4996507;28;20033;-72
2021/07/01 07:42:26;;;;;;;18.17;10.60;;;;;;;20.80;56.38;101557.34;4996016;28;20034;-72
2021/07/01 07:44:52;;;;;;;15.05;9.55;;;;;;;20.79;56.35;101555.59;4995897;28;20029;-72
2021/07/01 07:47:17;;;;;;;16.42;10.80;;;;;;;20.84;56.04;101559.09;4982480;28;20079;-72
2021/07/01 07:49:43;;;;;;;20.67;10.07;;;;;;;20.83;56.35;101559.97;4999663;28;20069;-71
2021/07/01 07:52:12;;;;;;;13.25;10.07;;;;;;;20.86;56.32;101559.97;4999723;28;20033;-72
2021/07/01 07:54:45;;;;;;;13.25;9.85;;;;;;;20.87;56.27;101552.97;4999425;28;20018;-71
2021/07/01 07:57:12;;;;;;;14.77;9.73;;;;;;;20.90;56.28;101559.06;4999703;28;20033;-71
2021/07/01 07:59:39;;;;;;;13.95;9.00;;;;;;;20.91;56.22;101557.31;4983287;28;20279;-71
2021/07/01 08:02:06;;;;;;;12.40;9.55;;;;;;;20.90;56.41;101560.84;5016998;28;20032;-72
2021/07/01 08:04:35;;;;;;;12.85;9.07;;;;;;;20.93;56.31;101569.56;5017155;28;20036;-71
2021/07/01 08:07:04;;;;;;;12.90;9.48;;;;;;;20.93;56.24;101561.69;5017326;28;20022;-72
2021/07/01 08:09:30;;;;;;;12.45;8.60;;;;;;;20.95;56.12;101565.19;4999717;28;20029;-72
2021/07/01 08:11:57;;;;;;;16.02;9.32;;;;;;;20.96;56.24;101568.69;5017452;28;20033;-72
2021/07/01 08:14:23;;;;;;;15.45;7.93;;;;;;;20.93;56.28;101563.44;4999805;28;20468;-71
2021/07/01 08:16:49;;;;;;;12.23;8.52;;;;;;;20.94;56.35;101565.19;5017519;28;20042;-71
2021/07/01 08:19:15;;;;;;;11.70;7.82;;;;;;;20.95;56.45;101564.31;5000242;28;20026;-72
2021/07/01 08:21:40;;;;;;;13.15;8.65;;;;;;;20.93;56.28;101572.19;5017222;28;20084;-72
2021/07/01 08:24:08;;;;;;;14.30;8.65;;;;;;;20.93;56.32;101556.44;5017228;28;20029;-72
2021/07/01 08:26:34;;;;;;;14.82;8.65;;;;;;;20.95;56.37;101561.69;4999630;28;20435;-73
2021/07/01 08:29:00;;;;;;;14.10;7.97;;;;;;;20.95;56.44;101564.31;5000217;28;20145;-72
2021/07/01 08:31:29;;;;;;;11.55;7.82;;;;;;;20.96;56.27;101564.31;5000376;28;20453;-73
2021/07/01 08:33:56;;;;;;;12.57;8.15;;;;;;;20.97;56.31;101567.81;5017852;28;20029;-72
2021/07/01 08:36:24;;;;;;;9.95;7.75;;;;;;;20.98;56.47;101567.81;5018291;28;20055;-70
2021/07/01 08:38:52;;;;;;;10.98;7.30;;;;;;;20.96;56.20;101561.69;5019323;28;20018;-71
2021/07/01 08:41:20;;;;;;;10.63;7.72;;;;;;;20.97;56.38;101571.31;5019221;28;20545;-71
2021/07/01 08:44:17;;;;;;;9.33;7.03;;;;;;;20.93;56.33;101552.91;5017057;28;20034;-71
2021/07/01 08:46:52;;;;;;;11.73;7.35;;;;;;;21.00;56.30;101566.06;4994236;28;19910;-71
2021/07/01 08:49:46;;;;;;;11.77;7.57;;;;;;;21.00;56.33;101568.69;4998714;28;20488;-72
2021/07/01 08:52:15;;;;;;;9.90;8.00;;;;;;;21.02;56.20;101569.56;5016273;28;20026;-72
2021/07/01 08:54:43;;;;;;;15.50;9.18;;;;;;;21.02;56.19;101582.72;4982076;28;20037;-72
2021/07/01 08:57:13;;;;;;;13.73;8.15;;;;;;;21.00;56.35;101573.94;5015480;28;20029;-71
2021/07/01 08:59:41;;;;;;;;;;;;;;;21.04;56.38;101582.66;4998797;28;20379;-72
2021/07/01 09:02:09;;;;;;;8.70;7.72;;;;;;;21.05;56.32;101581.78;4998138;28;19910;-71
2021/07/01 09:04:47;;;;;;;9.90;7.40;;;;;;;21.06;56.42;101575.66;5015694;28;20021;-72
2021/07/01 09:07:19;;;;;;;9.52;6.88;;;;;;;21.09;56.15;101583.53;5011080;28;20490;-71
2021/07/01 09:09:46;;;;;;;;;;;;;;;21.12;56.16;101590.56;5015872;28;20026;-71
2021/07/01 09:12:14;;;;;;;9.27;6.95;;;;;;;21.15;56.06;101585.28;4998111;28;19973;-72
2021/07/01 09:14:42;;;;;;;8.60;6.75;;;;;;;21.20;56.02;101591.41;5015515;28;20030;-71
2021/07/01 09:17:10;;;;;;;10.10;7.22;;;;;;;21.20;56.20;101586.16;5015537;28;20044;-72
2021/07/01 09:19:36;;;;;;;;;;;;;;;21.26;56.09;101592.28;5015816;28;20357;-71
2021/07/01 09:22:02;;;;;;;;;;;;;;;21.27;55.80;101580.88;5015660;28;20282;-72
2021/07/01 09:24:33;;;;;;;;;;;;;;;21.29;55.76;101586.97;4998092;28;19978;-72
2021/07/01 09:26:59;;;;;;;9.77;7.45;;;;;;;21.28;55.81;101580.00;5015541;28;19959;-72
2021/07/01 09:29:26;;;;;;;8.95;7.20;;;;;;;21.29;55.83;101578.25;4981188;28;20065;-71
2021/07/01 09:31:54;;;;;;;12.48;7.45;;;;;;;21.29;55.80;101583.50;5015151;28;20037;-71
2021/07/01 09:34:20;;;;;;;11.02;7.43;;;;;;;21.29;55.97;101573.81;4997589;28;20157;-75
2021/07/01 09:36:46;;;;;;;10.52;6.85;;;;;;;21.28;56.10;101573.88;4981445;28;20084;-71
2021/07/01 09:39:11;;;;;;;12.80;6.13;;;;;;;21.33;55.98;101574.69;4997674;28;20037;-71
2021/07/01 09:41:37;;;;;;;;;;;;;;;21.37;55.84;101568.53;5015313;28;20038;-72
2021/07/01 09:44:02;;;;;;;11.10;6.57;;;;;;;21.35;55.69;101568.53;5015106;28;20411;-72
2021/07/01 09:46:29;;;;;;;;;;;;;;;21.36;55.98;101577.31;4998570;28;20932;-72
2021/07/01 09:48:57;;;;;;;;;;;;;;;21.34;55.87;101582.59;5016278;28;20394;-72
2021/07/01 09:51:25;;;;;;;;;;;;;;;21.35;56.02;101567.66;4998626;28;19977;-72
2021/07/01 09:53:52;;;;;;;;;;;;;;;21.34;55.98;101579.94;5016432;28;19909;-72
2021/07/01 09:56:39;;;;;;;;;;;;;;;21.34;56.06;101576.44;5015883;28;19909;-72
2021/07/01 09:59:10;;;;;;;;;;;;;;;21.32;56.05;101588.72;5015816;28;19913;-71
2021/07/01 10:01:38;;;;;;;;;;;;;;;21.32;56.19;101591.34;5015765;28;19909;-72
2021/07/01 10:04:04;;;;;;;;;;;;;;;21.33;56.10;101587.84;5015438;28;19959;-71
2021/07/01 10:06:29;;;;;;;;;;;;;;;21.34;56.09;101587.84;4997850;28;19917;-72
2021/07/01 10:08:54;;;;;;;;;;;;;;;21.36;56.09;101590.47;4997107;28;19924;-72
2021/07/01 10:11:38;;;;;;;8.80;5.90;;;;;;;21.35;56.17;101591.34;4981268;28;20330;-72
2021/07/01 10:14:04;;;;;;;;;;;;;;;21.36;56.15;101595.72;5015027;28;20021;-71
2021/07/01 10:16:31;;;;;;;;;;;;;;;21.36;56.15;101595.72;5014958;28;19909;-72
2021/07/01 10:18:57;;;;;;;;;;;;;;;21.36;56.03;101587.84;4997282;28;20287;-72
2021/07/01 10:21:29;;;;;;;6.60;5.25;;;;;;;21.36;56.09;101598.38;5014994;28;19918;-72
2021/07/01 10:24:17;;;;;;;8.35;6.05;;;;;;;21.38;56.11;101599.25;4997164;28;20029;-72
2021/07/01 10:26:45;;;;;;;;;;;;;;;21.39;56.13;101598.34;4997527;28;19909;-72
2021/07/01 10:29:10;;;;;;;;;;;;;;;21.39;56.21;101598.34;5015290;28;19979;-72
2021/07/01 10:31:51;;;;;;;;;;;;;;;21.39;56.19;101603.63;5014989;28;20336;-72
2021/07/01 10:34:16;;;;;;;;;;;;;;;21.39;56.10;101601.88;5014961;28;19909;-72
2021/07/01 10:36:42;;;;;;;;;;;;;;;21.39;56.28;101601.88;5014734;28;19913;-71
2021/07/01 10:39:07;;;;;;;;;;;;;;;21.38;56.24;101609.75;4997146;28;19913;-72
2021/07/01 10:41:37;;;;;;;;;;;;;;;21.39;56.12;101609.75;4997418;28;20391;-72
2021/07/01 10:44:03;;;;;;;;;;;;;;;21.39;56.15;101614.16;4997139;28;19909;-71
2021/07/01 10:46:38;;;;;;;;;;;;;;;21.39;56.21;101612.38;5014974;28;20004;-72
2021/07/01 10:49:04;;;;;;;;;;;;;;;21.39;56.09;101615.03;5014546;28;19922;-71
2021/07/01 10:51:29;;;;;;;;;;;;;;;21.38;56.30;101621.16;5014850;28;19909;-74
2021/07/01 10:54:07;;;;;;;;;;;;;;;21.38;56.17;101613.28;4996878;28;19917;-72
2021/07/01 10:56:43;;;;;;;;;;;;;;;21.38;56.15;101621.16;5014562;28;19916;-73
2021/07/01 10:59:10;;;;;;;;;;;;;;;21.38;56.09;101615.91;4997353;28;19909;-71
2021/07/01 11:01:37;;;;;;;;;;;;;;;21.37;56.24;101608.88;4996998;28;19913;-71
2021/07/01 11:04:03;;;;;;;;;;;;;;;21.39;56.12;101606.25;5015914;28;19909;-74
2021/07/01 11:06:29;;;;;;;;;;;;;;;21.40;56.20;101610.63;5018288;28;19913;-74
2021/07/01 11:08:55;;;;;;;;;;;;;;;21.40;56.22;101600.09;5002132;28;19918;-74
2021/07/01 11:11:21;;;;;;;;;;;;;;;21.38;56.28;101609.75;4999992;28;19917;-72
2021/07/01 11:13:57;;;;;;;;;;;;;;;21.37;56.22;101624.66;5014101;28;19956;-72
2021/07/01 11:16:38;;;;;;;;;;;;;;;21.35;56.22;101610.66;5014292;28;19959;-71
2021/07/01 11:19:03;;;;;;;;;;;;;;;21.36;56.17;101615.03;5014164;28;19922;-72
2021/07/01 11:21:29;;;;;;;;;;;;;;;21.40;56.26;101613.25;5017338;28;19967;-71
2021/07/01 11:24:11;;;;;;;;;;;;;;;21.40;56.25;101615.91;5018432;28;20356;-73
2021/07/01 11:26:36;;;;;;;;;;;;;;;21.41;56.14;101619.41;5001097;28;20394;-72
2021/07/01 11:29:11;;;;;;;;;;;;;;;21.41;56.25;101615.00;5018427;28;19917;-72
2021/07/01 11:31:37;;;;;;;;;;;;;;;21.41;56.26;101615.00;5018573;28;19909;-72